Latest Coastal Weather Observations for Cato Island

IDQ60701

Issued at 12:45 am EST Sunday 20 April 2014 (issued every 10 minutes, with the page automatically refreshed every 10 minutes)

About coastal observations | Map of coastal stations | Coastal observations for QLD | Marine services | Other Formats
Station Details ID: 200601 Name: CATO ISLAND Lat: -23.25 Lon: 155.54 Height: 6.3 m
Data from the previous 72 hours. | See also: Recent months for locations in Queensland
Date/Time
EST
Temp

°C
Wind Pressure Rain
since 9am
mm
Weather Cloud Vis
km
Sea
Height
m
Swell
Dir
 
Speed
knots
Gust
knots
hPa Trend Height
m
Period
s
Dir
20/12:30am 22.8 ESE 0 2 1015.8 - - - - - - - - -
20/12:00am 23.3 ESE 0 3 1016.1 - - - - - - - - -
 
Date/Time
EST
Temp

°C
Wind Pressure Rain
since 9am
mm
Weather Cloud Vis
km
Sea
Height
m
Swell
Dir
 
Speed
knots
Gust
knots
hPa Trend Height
m
Period
s
Dir
19/11:30pm 23.6 CALM 0 1 1016.2 - - - - - - - - -
19/11:00pm 23.6 CALM 0 1 1016.4 - - - - - - - - -
19/10:30pm 23.7 CALM 0 1 1016.4 - - - - - - - - -
19/10:00pm 23.2 CALM 0 2 1016.6 - - - - - - - - -
19/09:30pm 23.8 CALM 0 1 1016.6 - - - - - - - - -
19/09:00pm 23.5 CALM 0 2 1016.6 - - - - - - - - -
19/08:30pm 24.0 CALM 0 2 1016.5 - - - - - - - - -
19/08:00pm 24.1 CALM 0 2 1016.4 - - - - - - - - -
19/07:30pm 24.2 CALM 0 2 1016.1 - - - - - - - - -
19/07:00pm 24.2 E 1 3 1016.0 - - - - - - - - -
19/06:30pm 24.1 CALM 0 2 1015.5 - - - - - - - - -
19/06:00pm 24.2 CALM 0 3 1015.2 - - - - - - - - -
19/05:30pm 24.2 ESE 7 9 1015.0 - - - - - - - - -
19/05:00pm 24.3 SSE 7 8 1014.8 - - - - - - - - -
19/04:30pm 24.4 SE 4 7 1014.5 - - - - - - - - -
19/04:00pm 24.6 SE 6 8 1014.5 - - - - - - - - -
19/03:30pm 24.8 S 5 8 1014.4 - - - - - - - - -
19/03:00pm 25.0 S 5 8 1014.4 - - - - - - - - -
19/02:30pm 25.3 S 4 7 1014.4 - - - - - - - - -
19/02:00pm 25.3 SSE 4 7 1014.4 - - - - - - - - -
19/01:30pm 25.6 S 4 6 1014.7 - - - - - - - - -
19/01:00pm 25.6 S 4 5 1014.9 - - - - - - - - -
19/12:30pm 25.4 SSE 4 5 1015.3 - - - - - - - - -
19/12:00pm 25.8 S 4 6 1015.7 - - - - - - - - -
19/11:30am 25.8 S 4 6 1016.0 - - - - - - - - -
19/11:00am 25.8 S 5 6 1016.3 - - - - - - - - -
19/10:30am 25.5 SE 4 6 1016.5 - - - - - - - - -
19/10:00am 25.3 ESE 4 5 1016.7 - - - - - - - - -
19/09:30am 25.7 E 4 6 1016.9 - - - - - - - - -
19/09:00am 25.2 E 5 7 1017.0 - - - - - - - - -
19/08:30am 25.2 E 5 7 1017.0 - - - - - - - - -
19/08:00am 24.7 ESE 5 7 1017.0 - - - - - - - - -
19/07:30am 24.5 E 5 7 1016.8 - - - - - - - - -
19/07:00am 24.1 SE 5 7 1016.6 - - - - - - - - -
19/06:30am 23.9 SE 6 7 1016.4 - - - - - - - - -
19/06:00am 23.4 E 5 6 1016.3 - - - - - - - - -
19/05:30am 23.2 E 4 7 1016.0 - - - - - - - - -
19/05:00am 23.1 SE 3 5 1016.0 - - - - - - - - -
19/04:30am 23.1 ESE 3 5 1015.9 - - - - - - - - -
19/04:00am 23.4 ESE 5 7 1015.9 - - - - - - - - -
19/03:30am 23.3 SE 4 5 1015.9 - - - - - - - - -
19/03:00am 23.3 SE 5 7 1015.9 - - - - - - - - -
19/02:30am 23.5 E 5 8 1016.0 - - - - - - - - -
19/02:00am 23.6 ESE 6 8 1016.2 - - - - - - - - -
19/01:30am 23.6 SE 6 7 1016.2 - - - - - - - - -
19/01:00am 23.7 ESE 6 8 1016.4 - - - - - - - - -
19/12:30am 23.8 SSE 6 8 1016.6 - - - - - - - - -
19/12:00am 23.9 SSE 7 8 1016.6 - - - - - - - - -
 
Date/Time
EST
Temp

°C
Wind Pressure Rain
since 9am
mm
Weather Cloud Vis
km
Sea
Height
m
Swell
Dir
 
Speed
knots
Gust
knots
hPa Trend Height
m
Period
s
Dir
18/11:30pm 24.0 SSE 7 8 1016.6 - - - - - - - - -
18/11:00pm 24.0 SSE 6 7 1016.7 - - - - - - - - -
18/10:30pm 24.1 SSE 7 9 1016.8 - - - - - - - - -
18/10:00pm 24.1 SE 7 10 1016.8 - - - - - - - - -
18/09:30pm 24.1 SSE 8 11 1016.7 - - - - - - - - -
18/09:00pm 24.0 SE 8 11 1016.5 - - - - - - - - -
18/08:30pm 24.0 SE 8 11 1016.5 - - - - - - - - -
18/08:00pm 24.2 SE 9 11 1016.3 - - - - - - - - -
18/07:30pm 24.1 SE 10 13 1016.1 - - - - - - - - -
18/07:00pm 24.0 SSE 9 11 1015.6 - - - - - - - - -
18/06:30pm 24.1 SSE 10 13 1015.3 - - - - - - - - -
18/06:00pm 24.1 SSE 9 11 1015.0 - - - - - - - - -
18/05:30pm 24.1 S 8 10 1014.8 - - - - - - - - -
18/05:00pm 24.3 SSE 8 11 1014.6 - - - - - - - - -
18/04:30pm 24.4 S 9 11 1014.3 - - - - - - - - -
18/04:00pm 24.5 S 9 11 1014.1 - - - - - - - - -
18/03:30pm 24.7 S 9 12 1013.8 - - - - - - - - -
18/03:00pm 24.8 S 9 11 1013.7 - - - - - - - - -
18/02:30pm 24.9 S 9 11 1013.7 - - - - - - - - -
18/02:00pm 24.9 S 9 11 1013.8 - - - - - - - - -
18/01:30pm 25.2 S 9 11 1014.0 - - - - - - - - -
18/01:00pm 24.9 S 9 11 1014.1 - - - - - - - - -
18/12:30pm 25.3 S 8 11 1014.5 - - - - - - - - -
18/12:00pm 25.0 S 9 11 1014.7 - - - - - - - - -
18/11:30am 25.1 S 7 9 1015.2 - - - - - - - - -
18/11:00am 25.0 S 7 10 1015.5 - - - - - - - - -
18/10:30am 25.0 S 8 10 1015.9 - - - - - - - - -
18/10:00am 24.8 S 9 11 1016.3 - - - - - - - - -
18/09:30am 24.8 S 8 11 1016.5 - - - - - - - - -
18/09:00am 24.7 SSE 9 11 1016.5 - - - - - - - - -
18/08:30am 24.4 S 8 9 1016.5 - - - - - - - - -
18/08:00am 24.3 SSE 10 12 1016.4 - - - - - - - - -
18/07:30am 24.3 S 10 12 1016.4 - - - - - - - - -
18/07:00am 23.9 S 10 13 1016.3 - - - - - - - - -
18/06:30am 23.9 SSE 10 12 1015.9 - - - - - - - - -
18/06:00am 23.6 SSE 9 11 1015.7 - - - - - - - - -
18/05:30am 23.5 SSE 10 12 1015.5 - - - - - - - - -
18/05:00am 23.5 SSE 10 13 1015.4 - - - - - - - - -
18/04:30am 23.5 SSE 10 12 1015.3 - - - - - - - - -
18/04:00am 23.5 SSE 10 13 1015.2 - - - - - - - - -
18/03:30am 23.5 SSE 9 11 1015.2 - - - - - - - - -
18/03:00am 23.5 SSE 9 11 1015.2 - - - - - - - - -
18/02:30am 23.6 SSE 10 13 1015.3 - - - - - - - - -
18/02:00am 23.7 SSE 10 13 1015.5 - - - - - - - - -
18/01:30am 23.7 SSE 9 13 1015.7 - - - - - - - - -
18/01:00am 23.8 SSE 10 12 1015.9 - - - - - - - - -
18/12:30am 23.8 SSE 11 13 1016.2 - - - - - - - - -
18/12:00am 24.0 SSE 12 14 1016.4 - - - - - - - - -
 
Date/Time
EST
Temp

°C
Wind Pressure Rain
since 9am
mm
Weather Cloud Vis
km
Sea
Height
m
Swell
Dir
 
Speed
knots
Gust
knots
hPa Trend Height
m
Period
s
Dir
17/11:30pm 23.9 SSE 11 15 1016.5 - - - - - - - - -
17/11:00pm 24.1 SSE 13 16 1016.6 - - - - - - - - -
17/10:30pm 24.1 SSE 13 15 1016.8 - - - - - - - - -
17/10:00pm 24.2 SSE 13 16 1016.8 - - - - - - - - -
17/09:30pm 24.2 SSE 13 15 1016.8 - - - - - - - - -
17/09:00pm 24.2 SSE 15 18 1016.6 - - - - - - - - -
17/08:30pm 24.4 SSE 15 17 1016.5 - - - - - - - - -
17/08:00pm 24.5 SSE 15 19 1016.4 - - - - - - - - -
17/07:30pm 24.4 SSE 15 19 1016.2 - - - - - - - - -
17/07:00pm 24.4 SSE 15 19 1015.9 - - - - - - - - -
17/06:30pm 24.4 SSE 16 19 1015.6 - - - - - - - - -
17/06:00pm 24.3 S 16 19 1015.3 - - - - - - - - -
17/05:30pm 24.4 S 16 19 1015.0 - - - - - - - - -
17/05:00pm 24.4 S 15 18 1014.8 - - - - - - - - -
17/04:30pm 24.4 S 14 17 1014.5 - - - - - - - - -
17/04:00pm 24.5 S 14 17 1014.3 - - - - - - - - -
17/03:30pm 24.7 S 15 19 1014.0 - - - - - - - - -
17/03:00pm 24.7 S 16 19 1014.0 - - - - - - - - -
17/02:30pm 24.8 S 16 19 1013.9 - - - - - - - - -
17/02:00pm 25.0 S 15 19 1014.1 - - - - - - - - -
17/01:30pm 25.2 S 16 19 1014.2 - - - - - - - - -
17/01:00pm 24.9 S 16 19 1014.5 - - - - - - - - -
17/12:30pm 24.9 S 14 18 1014.8 - - - - - - - - -
17/12:00pm 25.2 S 14 17 1015.1 - - - - - - - - -
17/11:30am 24.9 S 14 18 1015.6 - - - - - - - - -
17/11:00am 25.0 S 15 18 1016.1 - - - - - - - - -
17/10:30am 24.9 S 14 17 1016.4 - - - - - - - - -
17/10:00am 24.9 S 14 17 1016.4 - - - - - - - - -
17/09:30am 24.7 S 14 17 1016.5 - - - - - - - - -
17/09:00am 24.6 S 14 17 1016.5 - - - - - - - - -
17/08:30am 24.5 S 15 18 1016.4 - - - - - - - - -
17/08:00am 24.5 S 17 19 1016.2 - - - - - - - - -
17/07:30am 24.4 S 17 21 1015.9 - - - - - - - - -
17/07:00am 24.2 SSE 16 18 1015.8 - - - - - - - - -
17/06:30am 24.2 SSE 14 18 1015.6 - - - - - - - - -
17/06:00am 23.8 S 13 18 1015.3 - - - - - - - - -
17/05:30am 23.9 S 14 16 1015.0 - - - - - - - - -
17/05:00am 23.9 S 15 17 1014.8 - - - - - - - - -
17/04:30am 24.1 S 14 18 1014.5 - - - - - - - - -
17/04:00am 23.8 S 13 17 1014.4 - - - - - - - - -
17/03:30am 23.8 S 13 16 1014.1 - - - - - - - - -
17/03:00am 23.9 S 13 15 1014.2 - - - - - - - - -
17/02:30am 23.8 SSE 12 17 1014.2 - - - - - - - - -
17/02:00am 23.9 S 13 17 1014.2 - - - - - - - - -
17/01:30am 24.1 S 16 18 1014.4 - - - - - - - - -
17/01:00am 24.1 S 15 18 1014.7 - - - - - - - - -

Other Formats:

Comma delimited format used in spreadsheet applications
http://www.bom.gov.au/fwo/IDQ60701/IDQ60701.94394.axf

JavaScript Object Notation format (JSON) in row-major order
http://www.bom.gov.au/fwo/IDQ60701/IDQ60701.94394.json